createdAt,value
2022-11-05T00:04:02.998Z,8.00
2022-11-05T00:09:18.045Z,7.03
2022-11-05T00:14:42.547Z,7.83
2022-11-05T00:19:47.751Z,9.13
2022-11-05T00:25:10.717Z,8.70
2022-11-05T00:30:18.635Z,7.73
2022-11-05T00:35:27.202Z,7.87
2022-11-05T00:40:33.430Z,7.50
2022-11-05T00:45:38.703Z,8.03
2022-11-05T00:50:46.141Z,8.13
2022-11-05T00:55:51.340Z,7.20
2022-11-05T01:01:02.106Z,8.03
2022-11-05T01:06:14.348Z,8.27
2022-11-05T01:11:34.368Z,7.63
2022-11-05T01:16:42.040Z,6.83
2022-11-05T01:21:48.254Z,7.70
2022-11-05T01:26:57.230Z,7.50
2022-11-05T01:32:02.941Z,8.73
2022-11-05T01:37:08.254Z,8.33
2022-11-05T01:42:23.977Z,11.47
2022-11-05T01:47:41.605Z,9.27
2022-11-05T01:52:51.000Z,8.13
2022-11-05T01:57:59.945Z,8.33
2022-11-05T02:03:06.423Z,8.43
2022-11-05T02:08:15.462Z,7.40
2022-11-05T02:13:25.031Z,7.93
2022-11-05T02:18:49.074Z,7.97
2022-11-05T02:24:26.220Z,8.17
2022-11-05T02:29:54.436Z,9.07
2022-11-05T02:35:36.381Z,6.83
2022-11-05T02:41:02.786Z,7.00
2022-11-05T02:46:30.141Z,7.23
2022-11-05T02:51:41.356Z,7.70
2022-11-05T02:56:53.091Z,7.83
2022-11-05T03:02:02.649Z,6.67
2022-11-05T03:07:33.059Z,6.97
2022-11-05T03:12:49.440Z,8.07
2022-11-05T03:18:16.554Z,8.00
2022-11-05T03:23:40.117Z,7.00
2022-11-05T03:28:54.012Z,8.90
2022-11-05T03:34:04.444Z,8.30
2022-11-05T03:39:13.847Z,7.83
2022-11-05T03:44:26.209Z,7.30
2022-11-05T03:49:43.366Z,8.07
2022-11-05T03:54:48.745Z,8.23
2022-11-05T03:59:54.145Z,8.00
2022-11-05T04:04:59.417Z,6.27
2022-11-05T04:10:27.511Z,7.10
2022-11-05T04:15:36.613Z,8.73
2022-11-05T04:20:59.404Z,7.20
2022-11-05T04:26:04.654Z,7.63
2022-11-05T04:31:09.731Z,7.27
2022-11-05T04:36:15.986Z,7.13
2022-11-05T04:41:29.500Z,6.93
2022-11-05T04:47:00.760Z,8.27
2022-11-05T04:52:18.354Z,7.80
2022-11-05T04:57:28.018Z,8.97
2022-11-05T05:02:37.403Z,8.50
2022-11-05T05:07:45.150Z,8.67
2022-11-05T05:12:50.470Z,8.27
2022-11-05T05:17:56.520Z,8.73
2022-11-05T05:23:07.235Z,7.77
2022-11-05T05:28:28.938Z,8.07
2022-11-05T05:33:36.791Z,7.87
2022-11-05T05:38:55.705Z,7.20
2022-11-05T05:44:06.472Z,6.80
2022-11-05T05:49:12.864Z,8.17
2022-11-05T05:54:18.692Z,7.50
2022-11-05T05:59:23.976Z,8.83
2022-11-05T06:04:29.141Z,7.10
2022-11-05T06:09:34.628Z,6.57
2022-11-05T06:14:39.673Z,7.63
2022-11-05T06:19:44.809Z,7.07
2022-11-05T06:24:50.510Z,7.77
2022-11-05T06:29:56.853Z,7.87
2022-11-05T06:35:03.919Z,7.87
2022-11-05T06:40:14.844Z,7.93
2022-11-05T06:45:20.149Z,10.47
2022-11-05T06:50:26.772Z,8.83
2022-11-05T06:55:32.975Z,7.77
2022-11-05T07:00:38.367Z,8.00
2022-11-05T07:05:46.686Z,7.37
2022-11-05T07:10:51.839Z,7.20
2022-11-05T07:15:57.172Z,7.00
2022-11-05T07:21:02.379Z,6.80
2022-11-05T07:26:08.812Z,6.00
2022-11-05T07:31:16.865Z,7.60
2022-11-05T07:36:22.118Z,6.77
2022-11-05T07:41:29.446Z,7.23
2022-11-05T07:46:35.910Z,6.67
2022-11-05T07:51:41.595Z,7.73
2022-11-05T07:57:01.181Z,8.77
2022-11-05T08:02:16.151Z,5.53
2022-11-05T08:07:23.236Z,6.27
2022-11-05T08:12:28.856Z,5.33
2022-11-05T08:17:37.956Z,7.10
2022-11-05T08:22:49.432Z,5.87
2022-11-05T08:28:00.765Z,5.03
2022-11-05T08:33:12.392Z,5.60
2022-11-05T08:38:20.448Z,4.70
2022-11-05T08:43:26.954Z,4.87
2022-11-05T08:48:33.894Z,5.10
2022-11-05T08:53:39.424Z,4.17
2022-11-05T08:58:44.644Z,4.43
2022-11-05T09:03:52.194Z,3.63
2022-11-05T09:08:57.537Z,6.07
2022-11-05T09:14:02.656Z,3.60
2022-11-05T09:19:08.027Z,3.53
2022-11-05T09:24:15.471Z,2.90
2022-11-05T09:29:22.691Z,2.30
2022-11-05T09:34:28.167Z,2.63
2022-11-05T09:39:33.553Z,11.97
2022-11-05T09:44:44.751Z,3.17
2022-11-05T09:49:53.249Z,2.13
2022-11-05T09:55:07.295Z,3.50
2022-11-05T10:00:18.503Z,3.93
2022-11-05T10:05:26.060Z,6.07
2022-11-05T10:10:54.398Z,3.57
2022-11-05T10:16:20.614Z,3.50
2022-11-05T15:19:49.048Z,1.73
2022-11-05T15:24:54.643Z,2.23
2022-11-05T15:30:03.061Z,2.53
2022-11-05T15:35:27.349Z,1.80
2022-11-05T15:40:34.145Z,2.17
2022-11-05T15:45:40.549Z,1.70
2022-11-05T15:50:46.258Z,1.80
2022-11-05T15:55:54.868Z,1.80
2022-11-05T16:01:04.268Z,2.27
2022-11-05T16:06:10.938Z,2.40
2022-11-05T16:11:23.168Z,1.90
2022-11-05T16:16:43.792Z,3.07
2022-11-05T16:21:56.247Z,2.40
2022-11-05T16:27:13.037Z,3.80
2022-11-05T16:32:36.604Z,3.70
2022-11-05T16:37:49.169Z,3.57
2022-11-05T16:42:55.219Z,3.23
2022-11-05T16:48:13.880Z,2.53
2022-11-05T16:53:25.402Z,2.67
2022-11-05T16:58:36.950Z,2.97
2022-11-05T17:03:49.118Z,2.83
2022-11-05T17:09:06.251Z,3.70
2022-11-05T17:14:24.653Z,4.13
2022-11-05T17:19:37.069Z,2.97
2022-11-05T17:24:47.572Z,4.97
2022-11-05T17:30:04.055Z,3.43
2022-11-05T17:46:31.995Z,3.50
2022-11-05T17:52:12.077Z,4.70
2022-11-05T17:57:32.236Z,3.87
2022-11-05T18:02:46.636Z,2.83
2022-11-05T18:08:02.820Z,2.90
2022-11-05T18:13:08.964Z,2.80
2022-11-05T18:18:19.843Z,3.57
2022-11-05T18:23:22.539Z,3.30
2022-11-05T18:28:42.547Z,3.37
2022-11-05T18:33:46.210Z,2.53
2022-11-05T18:38:58.260Z,4.90
2022-11-05T18:44:05.528Z,6.47
2022-11-05T18:49:15.455Z,6.70
2022-11-05T18:54:20.958Z,7.70
2022-11-05T18:59:41.694Z,4.50
2022-11-05T19:04:38.136Z,4.87
2022-11-05T19:09:43.511Z,3.13
2022-11-05T19:14:48.832Z,3.77
2022-11-05T19:19:55.510Z,3.67
2022-11-05T19:25:01.761Z,4.00
2022-11-05T19:30:08.090Z,4.70
2022-11-05T19:35:13.394Z,4.17
2022-11-05T19:40:25.482Z,3.97
2022-11-05T19:45:44.246Z,4.33
2022-11-05T19:50:42.680Z,4.17
2022-11-05T19:55:47.881Z,3.80
2022-11-05T20:00:54.848Z,4.47
2022-11-05T20:06:05.606Z,4.77
2022-11-05T20:11:11.097Z,7.10
2022-11-05T20:16:22.312Z,6.13
2022-11-05T20:21:27.659Z,7.23
2022-11-05T20:26:33.020Z,10.90
2022-11-05T20:31:38.192Z,10.33
2022-11-05T20:36:43.661Z,16.53
2022-11-05T20:41:49.088Z,14.70
2022-11-05T20:46:54.301Z,16.87
2022-11-05T20:51:59.637Z,20.93
2022-11-05T20:57:04.948Z,21.90
2022-11-05T21:02:12.927Z,18.10
2022-11-05T21:07:18.269Z,16.13
2022-11-05T21:12:23.490Z,16.80
2022-11-05T21:17:28.753Z,18.73
2022-11-05T21:22:34.058Z,16.77
2022-11-05T21:27:43.450Z,17.60
2022-11-05T21:32:46.049Z,13.20
2022-11-05T21:37:51.192Z,7.37
2022-11-05T21:42:56.320Z,8.97
2022-11-05T21:48:01.716Z,10.20
2022-11-05T21:53:25.668Z,10.10
2022-11-05T21:58:48.556Z,8.60
2022-11-05T22:03:56.518Z,6.40
2022-11-05T22:09:00.825Z,7.70
2022-11-05T22:14:05.912Z,6.80
2022-11-05T22:19:11.441Z,9.93
2022-11-05T22:24:17.378Z,9.53
2022-11-05T22:29:23.306Z,9.30
2022-11-05T22:34:28.655Z,11.63
2022-11-05T22:39:33.859Z,11.87
2022-11-05T22:44:39.023Z,11.20
2022-11-05T22:49:45.523Z,12.33
2022-11-05T22:54:51.506Z,11.97
2022-11-05T22:59:56.803Z,15.30
2022-11-05T23:05:01.983Z,13.70
2022-11-05T23:10:12.393Z,14.30
2022-11-05T23:15:35.561Z,11.90
2022-11-05T23:20:58.537Z,14.37
2022-11-05T23:26:05.386Z,10.53
2022-11-05T23:31:28.740Z,10.70
2022-11-05T23:36:52.055Z,11.90
2022-11-05T23:42:15.468Z,10.83
2022-11-05T23:47:38.504Z,10.97
2022-11-05T23:52:43.885Z,11.07
2022-11-05T23:57:50.252Z,10.93
